Time;durP1;ratioP1;P1;durP2;ratioP2;P2;SDS_P1;SDS_P2;PMS_P1;PMS_P2;Temp;Humidity;BMP_temperature;BMP_pressure;BME280_temperature;BME280_humidity;BME280_pressure;Samples;Min_cycle;Max_cycle;Signal;HPM_P1;HPM_P2
2022/08/01 00:02:04;;;;;;;6.72;6.22;;;;;;;;;;5113913;28;20026;-79
2022/08/01 00:04:31;;;;;;;5.40;4.97;;;;;;;;;;5115693;28;20016;-80
2022/08/01 00:06:57;;;;;;;6.05;4.75;;;;;;;;;;5099725;28;20023;-79
2022/08/01 00:09:23;;;;;;;5.68;5.18;;;;;;;;;;5118168;28;20023;-80
2022/08/01 00:11:49;;;;;;;6.85;5.75;;;;;;;;;;5099738;28;20020;-80
2022/08/01 00:14:15;;;;;;;5.70;5.30;;;;;;;;;;5099717;28;20397;-79
2022/08/01 00:16:41;;;;;;;5.28;4.78;;;;;;;;;;5117998;28;20034;-79
2022/08/01 00:19:07;;;;;;;5.53;5.03;;;;;;;;;;5096006;28;20048;-79
2022/08/01 00:21:33;;;;;;;5.28;4.85;;;;;;;;;;5079406;28;20020;-79
2022/08/01 00:23:59;;;;;;;6.68;6.07;;;;;;;;;;5096204;28;20455;-80
2022/08/01 00:26:26;;;;;;;5.82;5.35;;;;;;;;;;5097291;28;20070;-79
2022/08/01 00:28:52;;;;;;;5.72;5.32;;;;;;;;;;5097352;28;20020;-79
2022/08/01 00:31:18;;;;;;;6.30;5.80;;;;;;;;;;5097237;28;20025;-80
2022/08/01 00:33:44;;;;;;;6.18;5.60;;;;;;;;;;5097112;28;20510;-79
2022/08/01 00:36:10;;;;;;;6.20;5.60;;;;;;;;;;5097162;28;20055;-79
2022/08/01 00:38:36;;;;;;;5.63;5.13;;;;;;;;;;5097170;28;20028;-79
2022/08/01 00:41:02;;;;;;;6.57;5.97;;;;;;;;;;5096994;28;20107;-79
2022/08/01 00:43:28;;;;;;;5.97;5.47;;;;;;;;;;5097272;28;20032;-79
2022/08/01 00:45:54;;;;;;;5.53;5.13;;;;;;;;;;5096840;28;20027;-78
2022/08/01 00:48:20;;;;;;;5.68;5.18;;;;;;;;;;5097101;28;20048;-80
2022/08/01 00:50:47;;;;;;;6.22;5.15;;;;;;;;;;5096858;28;20450;-79
2022/08/01 00:53:13;;;;;;;5.60;5.10;;;;;;;;;;5096857;28;20021;-79
2022/08/01 00:55:39;;;;;;;9.68;5.70;;;;;;;;;;5096688;28;20024;-81
2022/08/01 00:58:05;;;;;;;5.15;4.75;;;;;;;;;;5096744;28;20039;-79
2022/08/01 01:00:32;;;;;;;5.00;4.60;;;;;;;;;;5096608;28;20403;-79
2022/08/01 01:02:58;;;;;;;5.25;4.80;;;;;;;;;;5096623;28;20063;-79
2022/08/01 01:05:24;;;;;;;5.60;5.20;;;;;;;;;;5096456;28;20467;-79
2022/08/01 01:07:56;;;;;;;5.55;5.15;;;;;;;;;;5096675;28;20073;-79
2022/08/01 01:10:22;;;;;;;5.28;4.80;;;;;;;;;;5096547;28;20047;-79
2022/08/01 01:12:48;;;;;;;5.25;4.78;;;;;;;;;;5096533;28;20129;-79
2022/08/01 01:15:17;;;;;;;5.47;4.97;;;;;;;;;;5096303;28;20025;-79
2022/08/01 01:17:43;;;;;;;5.05;4.65;;;;;;;;;;5096388;28;20104;-79
2022/08/01 01:20:12;;;;;;;4.72;4.43;;;;;;;;;;5096020;28;20847;-79
2022/08/01 01:22:57;;;;;;;6.13;5.60;;;;;;;;;;5096274;28;20081;-79
2022/08/01 01:25:41;;;;;;;5.53;4.90;;;;;;;;;;5096182;28;20028;-79
2022/08/01 01:28:07;;;;;;;;;;;;;;;;;;5096574;28;20026;-79
2022/08/01 01:30:34;;;;;;;5.47;5.07;;;;;;;;;;5096155;28;19987;-79
2022/08/01 01:33:01;;;;;;;5.80;5.30;;;;;;;;;;5095893;28;20510;-79
2022/08/01 01:35:29;;;;;;;4.95;4.55;;;;;;;;;;5096033;28;20107;-79
2022/08/01 01:37:58;;;;;;;4.45;4.05;;;;;;;;;;5095957;28;20028;-79
2022/08/01 01:40:26;;;;;;;5.38;4.97;;;;;;;;;;5095938;28;20028;-79
2022/08/01 01:42:52;;;;;;;5.20;4.80;;;;;;;;;;5095890;28;20478;-80
2022/08/01 01:45:19;;;;;;;5.05;4.65;;;;;;;;;;5095864;28;20035;-80
2022/08/01 01:47:46;;;;;;;4.75;4.25;;;;;;;;;;5095789;28;20374;-80
2022/08/01 01:50:12;;;;;;;4.80;4.40;;;;;;;;;;5095756;28;20016;-80
2022/08/01 01:52:40;;;;;;;5.45;4.55;;;;;;;;;;5095734;28;20020;-79
2022/08/01 01:55:06;;;;;;;4.28;3.97;;;;;;;;;;5095697;28;20027;-79
2022/08/01 01:57:33;;;;;;;4.43;4.03;;;;;;;;;;5095644;28;20028;-78
2022/08/01 02:00:00;;;;;;;4.55;4.07;;;;;;;;;;5095538;28;20028;-79
2022/08/01 02:02:27;;;;;;;4.28;3.88;;;;;;;;;;5095484;28;20085;-79
2022/08/01 02:04:54;;;;;;;4.57;4.20;;;;;;;;;;5095348;28;20035;-79
2022/08/01 02:07:22;;;;;;;4.20;3.65;;;;;;;;;;5095427;28;20028;-79
2022/08/01 02:09:49;;;;;;;4.32;3.92;;;;;;;;;;5077145;28;20482;-79
2022/08/01 02:12:17;;;;;;;4.53;4.13;;;;;;;;;;5095237;28;20425;-80
2022/08/01 02:14:47;;;;;;;4.40;4.00;;;;;;;;;;5095237;28;20478;-80
2022/08/01 02:17:16;;;;;;;4.82;4.43;;;;;;;;;;5095277;28;20031;-79
2022/08/01 02:19:43;;;;;;;4.85;4.45;;;;;;;;;;5107228;28;20065;-80
2022/08/01 02:22:20;;;;;;;4.45;4.00;;;;;;;;;;5115498;28;20031;-79
2022/08/01 02:25:04;;;;;;;4.63;4.07;;;;;;;;;;5115249;28;20024;-80
2022/08/01 02:27:35;;;;;;;4.68;4.15;;;;;;;;;;5114824;28;20024;-79
2022/08/01 02:30:05;;;;;;;4.72;4.30;;;;;;;;;;5115373;28;20023;-79
2022/08/01 02:32:34;;;;;;;4.95;4.05;;;;;;;;;;5096934;28;20495;-79
2022/08/01 02:35:02;;;;;;;4.25;3.85;;;;;;;;;;5115251;28;20120;-80
2022/08/01 02:37:31;;;;;;;5.25;3.72;;;;;;;;;;5115222;28;20118;-79
2022/08/01 02:39:58;;;;;;;4.35;3.95;;;;;;;;;;5115347;28;20521;-79
2022/08/01 02:42:27;;;;;;;4.38;3.97;;;;;;;;;;5115092;28;20024;-79
2022/08/01 02:44:54;;;;;;;4.70;4.30;;;;;;;;;;5115039;28;20072;-79
2022/08/01 02:47:21;;;;;;;4.13;3.72;;;;;;;;;;5114998;28;20039;-79
2022/08/01 02:49:48;;;;;;;3.83;3.53;;;;;;;;;;5114992;28;20047;-79
2022/08/01 02:52:15;;;;;;;3.75;3.45;;;;;;;;;;5114796;28;20026;-79
2022/08/01 02:54:44;;;;;;;3.90;3.35;;;;;;;;;;5114884;28;20030;-79
2022/08/01 02:57:10;;;;;;;4.70;4.30;;;;;;;;;;5114879;28;20374;-79
2022/08/01 02:59:37;;;;;;;4.55;4.15;;;;;;;;;;5114673;28;20031;-80
2022/08/01 03:02:04;;;;;;;5.80;5.40;;;;;;;;;;5114759;28;20046;-80
2022/08/01 03:04:33;;;;;;;6.00;5.50;;;;;;;;;;5114653;28;20028;-80
2022/08/01 03:07:00;;;;;;;6.07;5.22;;;;;;;;;;5114635;28;20068;-80
2022/08/01 03:09:27;;;;;;;5.97;5.38;;;;;;;;;;5114583;28;20027;-79
2022/08/01 03:11:55;;;;;;;6.82;6.22;;;;;;;;;;5114559;28;20029;-80
2022/08/01 03:14:23;;;;;;;6.00;5.53;;;;;;;;;;5114551;28;20099;-79
2022/08/01 03:16:50;;;;;;;5.38;4.97;;;;;;;;;;5114466;28;20080;-80
2022/08/01 03:19:16;;;;;;;6.30;5.68;;;;;;;;;;5114244;28;20075;-79
2022/08/01 03:21:44;;;;;;;6.10;5.50;;;;;;;;;;5096043;28;20024;-79
2022/08/01 03:24:10;;;;;;;6.15;5.55;;;;;;;;;;5114367;28;20528;-79
2022/08/01 03:26:37;;;;;;;6.57;5.25;;;;;;;;;;5114273;28;20026;-79
2022/08/01 03:29:07;;;;;;;5.18;4.68;;;;;;;;;;5096029;28;20024;-79
2022/08/01 03:31:38;;;;;;;5.10;4.60;;;;;;;;;;5114252;28;20447;-79
2022/08/01 03:34:04;;;;;;;5.25;4.75;;;;;;;;;;5114159;28;20083;-78
2022/08/01 03:36:32;;;;;;;5.45;4.85;;;;;;;;;;5114221;28;20054;-78
2022/08/01 03:39:00;;;;;;;7.60;6.82;;;;;;;;;;5094993;28;20386;-78
2022/08/01 03:41:28;;;;;;;9.32;8.38;;;;;;;;;;5114130;28;20020;-79
2022/08/01 03:44:15;;;;;;;4.57;4.20;;;;;;;;;;5113994;28;20458;-78
2022/08/01 03:46:43;;;;;;;7.72;3.88;;;;;;;;;;5113982;28;20034;-78
2022/08/01 03:49:13;;;;;;;5.25;4.30;;;;;;;;;;5114048;28;20027;-78
2022/08/01 03:51:39;;;;;;;5.50;3.90;;;;;;;;;;5113983;28;20478;-78
2022/08/01 03:54:05;;;;;;;6.47;5.70;;;;;;;;;;5113902;28;20495;-78
2022/08/01 03:56:32;;;;;;;5.97;5.47;;;;;;;;;;5113931;28;20015;-77
2022/08/01 03:59:00;;;;;;;10.90;5.78;;;;;;;;;;5113589;28;20023;-79
2022/08/01 04:01:26;;;;;;;7.00;6.30;;;;;;;;;;5113863;28;20019;-78
2022/08/01 04:03:53;;;;;;;7.47;6.30;;;;;;;;;;5113817;28;20522;-78
2022/08/01 04:06:20;;;;;;;6.28;5.53;;;;;;;;;;5113785;28;20024;-78
2022/08/01 04:08:55;;;;;;;7.38;6.47;;;;;;;;;;5113761;28;20012;-78
2022/08/01 04:11:22;;;;;;;8.70;7.00;;;;;;;;;;5113857;28;20482;-78
2022/08/01 04:13:48;;;;;;;6.78;6.22;;;;;;;;;;5113709;28;20356;-79
2022/08/01 04:16:14;;;;;;;6.10;5.28;;;;;;;;;;5113479;28;20034;-78
2022/08/01 04:18:40;;;;;;;5.55;4.97;;;;;;;;;;5113451;28;20043;-78
2022/08/01 04:21:06;;;;;;;6.15;4.93;;;;;;;;;;5113700;28;20046;-78
2022/08/01 04:23:34;;;;;;;7.50;5.90;;;;;;;;;;5113677;28;20027;-78
2022/08/01 04:26:03;;;;;;;5.80;5.20;;;;;;;;;;5113485;28;20028;-79
2022/08/01 04:28:31;;;;;;;5.80;5.35;;;;;;;;;;5113585;28;20049;-78
2022/08/01 04:30:57;;;;;;;4.90;4.40;;;;;;;;;;5113429;28;20026;-79
2022/08/01 04:33:25;;;;;;;5.28;4.03;;;;;;;;;;5095241;28;20020;-79
2022/08/01 04:35:51;;;;;;;12.10;10.05;;;;;;;;;;5113352;28;20031;-79
2022/08/01 04:38:22;;;;;;;17.77;14.00;;;;;;;;;;5113387;28;20514;-78
2022/08/01 04:40:50;;;;;;;7.30;6.60;;;;;;;;;;5094752;28;20073;-78
2022/08/01 04:43:16;;;;;;;6.68;4.32;;;;;;;;;;5113266;28;20019;-79
2022/08/01 04:45:43;;;;;;;5.22;4.72;;;;;;;;;;5113355;28;20019;-79
2022/08/01 04:48:10;;;;;;;6.88;4.45;;;;;;;;;;5113330;28;20024;-78
2022/08/01 04:50:36;;;;;;;4.50;3.95;;;;;;;;;;5115119;28;20020;-79
2022/08/01 04:53:03;;;;;;;3.92;3.50;;;;;;;;;;5117248;28;20024;-79
2022/08/01 04:55:31;;;;;;;3.67;3.38;;;;;;;;;;5117243;28;20028;-78
2022/08/01 04:57:57;;;;;;;4.28;3.70;;;;;;;;;;5117277;28;20474;-78
2022/08/01 05:00:23;;;;;;;4.38;4.07;;;;;;;;;;5117132;28;20110;-78
2022/08/01 05:02:49;;;;;;;4.05;3.75;;;;;;;;;;5117048;28;20024;-78
2022/08/01 05:05:15;;;;;;;3.60;3.30;;;;;;;;;;5116998;28;20024;-78
2022/08/01 05:07:41;;;;;;;5.63;3.92;;;;;;;;;;5116847;28;20020;-78
2022/08/01 05:10:07;;;;;;;5.55;4.20;;;;;;;;;;5116936;28;20204;-78
2022/08/01 05:12:34;;;;;;;5.60;4.43;;;;;;;;;;5116772;28;20031;-78
2022/08/01 05:15:00;;;;;;;5.07;3.80;;;;;;;;;;5116797;28;20076;-79
2022/08/01 05:17:26;;;;;;;6.25;4.25;;;;;;;;;;5116396;28;20380;-80
2022/08/01 05:19:52;;;;;;;5.90;3.28;;;;;;;;;;5102301;28;20463;-78
2022/08/01 05:22:18;;;;;;;4.22;3.22;;;;;;;;;;5096087;28;20024;-78
2022/08/01 05:24:46;;;;;;;4.72;3.15;;;;;;;;;;5063538;28;20028;-78
2022/08/01 05:27:13;;;;;;;3.70;2.75;;;;;;;;;;5055834;28;20017;-79
2022/08/01 05:29:39;;;;;;;2.65;2.45;;;;;;;;;;5049206;28;20415;-78
2022/08/01 05:32:06;;;;;;;2.55;2.35;;;;;;;;;;5075501;28;20421;-78
2022/08/01 05:34:32;;;;;;;2.65;2.20;;;;;;;;;;5060458;28;20026;-80
2022/08/01 05:36:58;;;;;;;3.20;2.50;;;;;;;;;;5068852;28;20029;-78
2022/08/01 05:39:24;;;;;;;2.50;2.30;;;;;;;;;;5064588;28;20493;-78
2022/08/01 05:41:50;;;;;;;3.75;2.22;;;;;;;;;;5066748;28;20081;-78
2022/08/01 05:44:20;;;;;;;14.90;13.40;;;;;;;;;;5064930;28;20024;-79
2022/08/01 05:46:46;;;;;;;3.65;2.55;;;;;;;;;;5049824;28;20438;-79
2022/08/01 05:49:13;;;;;;;2.80;1.88;;;;;;;;;;5069915;28;20557;-77
2022/08/01 05:51:39;;;;;;;3.92;2.03;;;;;;;;;;5071901;28;20379;-81
2022/08/01 05:54:05;;;;;;;4.65;2.75;;;;;;;;;;5070751;28;20502;-79
2022/08/01 05:56:31;;;;;;;2.53;1.85;;;;;;;;;;5072764;28;20085;-77
2022/08/01 05:58:57;;;;;;;4.47;2.30;;;;;;;;;;5072990;28;20020;-78
2022/08/01 06:01:23;;;;;;;2.85;2.03;;;;;;;;;;5068822;28;20026;-82
2022/08/01 06:03:49;;;;;;;2.80;2.58;;;;;;;;;;5060506;28;20047;-79
2022/08/01 06:06:16;;;;;;;2.35;2.05;;;;;;;;;;5052902;28;20500;-79
2022/08/01 06:08:42;;;;;;;4.15;2.67;;;;;;;;;;5052926;28;20028;-78
2022/08/01 06:11:08;;;;;;;2.60;2.20;;;;;;;;;;5054567;28;20033;-77
2022/08/01 06:13:34;;;;;;;5.57;4.18;;;;;;;;;;5062016;28;20313;-78
2022/08/01 06:16:00;;;;;;;6.63;2.28;;;;;;;;;;5072329;28;20444;-78
2022/08/01 06:18:26;;;;;;;3.10;2.20;;;;;;;;;;5074034;28;20052;-77
2022/08/01 06:20:52;;;;;;;2.70;2.50;;;;;;;;;;5086994;28;20553;-79
2022/08/01 06:23:18;;;;;;;2.70;2.15;;;;;;;;;;5092568;28;20028;-81
2022/08/01 06:25:44;;;;;;;3.55;2.67;;;;;;;;;;5092576;28;20570;-81
2022/08/01 06:28:10;;;;;;;3.15;2.22;;;;;;;;;;5092600;28;20028;-80
2022/08/01 06:30:37;;;;;;;11.57;9.43;;;;;;;;;;5092214;28;20371;-79
2022/08/01 06:33:04;;;;;;;3.80;3.20;;;;;;;;;;5092447;28;20493;-79
2022/08/01 06:35:30;;;;;;;2.55;1.80;;;;;;;;;;5092936;28;20486;-82
2022/08/01 06:37:57;;;;;;;3.47;2.50;;;;;;;;;;5091967;28;20506;-79
2022/08/01 06:40:23;;;;;;;7.28;5.40;;;;;;;;;;5089425;28;20056;-78
2022/08/01 06:42:49;;;;;;;4.40;2.20;;;;;;;;;;5092433;28;20059;-80
2022/08/01 06:45:16;;;;;;;3.03;2.00;;;;;;;;;;5092109;28;20032;-80
2022/08/01 06:47:42;;;;;;;2.72;1.88;;;;;;;;;;5076989;28;20029;-80
2022/08/01 06:50:09;;;;;;;2.50;2.10;;;;;;;;;;5079164;28;20095;-81
2022/08/01 06:52:36;;;;;;;3.15;2.00;;;;;;;;;;5086866;28;20054;-77
2022/08/01 06:55:02;;;;;;;3.65;2.38;;;;;;;;;;5091876;28;20032;-80
2022/08/01 06:57:28;;;;;;;6.00;2.22;;;;;;;;;;5085931;28;20039;-77
2022/08/01 06:59:55;;;;;;;4.00;2.13;;;;;;;;;;5083822;28;20032;-80
2022/08/01 07:02:21;;;;;;;5.35;3.05;;;;;;;;;;5086839;28;20386;-79
2022/08/01 07:04:47;;;;;;;4.50;2.20;;;;;;;;;;5078770;28;20032;-80
2022/08/01 07:07:13;;;;;;;3.53;2.20;;;;;;;;;;5083089;28;20056;-80
2022/08/01 07:09:42;;;;;;;4.35;2.40;;;;;;;;;;5085722;28;20024;-83
2022/08/01 07:12:08;;;;;;;3.83;2.00;;;;;;;;;;5077150;28;20117;-80
2022/08/01 07:14:34;;;;;;;3.80;2.80;;;;;;;;;;5084118;28;20028;-80
2022/08/01 07:17:00;;;;;;;4.95;2.70;;;;;;;;;;5083202;28;20035;-85
2022/08/01 07:19:27;;;;;;;4.20;2.15;;;;;;;;;;5071223;28;20059;-81
2022/08/01 07:21:53;;;;;;;6.00;2.50;;;;;;;;;;5072030;28;20020;-81
2022/08/01 07:24:19;;;;;;;7.03;3.45;;;;;;;;;;5063517;28;20031;-84
2022/08/01 07:26:47;;;;;;;4.97;2.90;;;;;;;;;;5079498;28;20028;-79
2022/08/01 07:29:13;;;;;;;6.53;2.95;;;;;;;;;;5075029;28;20021;-82
2022/08/01 07:31:39;;;;;;;4.38;2.22;;;;;;;;;;5070869;28;20074;-83
2022/08/01 07:34:05;;;;;;;5.20;2.33;;;;;;;;;;5071106;28;20056;-84
2022/08/01 07:36:32;;;;;;;5.88;2.28;;;;;;;;;;5083497;28;20101;-80
2022/08/01 07:38:58;;;;;;;5.85;2.42;;;;;;;;;;5091773;28;20030;-82
2022/08/01 07:41:24;;;;;;;6.90;2.53;;;;;;;;;;5086524;28;20475;-82
2022/08/01 07:43:50;;;;;;;4.57;2.28;;;;;;;;;;5085037;28;20044;-82
2022/08/01 07:46:17;;;;;;;4.78;2.25;;;;;;;;;;5086057;28;20458;-81
2022/08/01 07:48:43;;;;;;;7.57;2.70;;;;;;;;;;5082274;28;20051;-75
2022/08/01 07:51:10;;;;;;;3.58;2.13;;;;;;;;;;5073313;28;20069;-81
2022/08/01 07:53:36;;;;;;;4.55;2.60;;;;;;;;;;5069152;28;20091;-80
2022/08/01 07:56:04;;;;;;;6.13;2.40;;;;;;;;;;5090647;28;20537;-83
2022/08/01 07:58:30;;;;;;;5.45;2.60;;;;;;;;;;5084370;28;20208;-83
2022/08/01 08:00:56;;;;;;;3.85;2.33;;;;;;;;;;5085827;28;20032;-79
2022/08/01 08:03:22;;;;;;;4.28;2.67;;;;;;;;;;5084396;28;20107;-80
2022/08/01 08:05:49;;;;;;;6.20;4.63;;;;;;;;;;5090217;28;20448;-81
2022/08/01 08:08:16;;;;;;;6.75;3.33;;;;;;;;;;5071969;28;20376;-78
2022/08/01 08:10:43;;;;;;;4.57;2.72;;;;;;;;;;5090050;28;20498;-83
2022/08/01 08:13:09;;;;;;;4.25;3.08;;;;;;;;;;5086687;28;20093;-82
2022/08/01 08:15:35;;;;;;;5.65;3.35;;;;;;;;;;5087353;28;20016;-82
2022/08/01 08:18:01;;;;;;;7.93;7.15;;;;;;;;;;5075353;28;20108;-81
2022/08/01 08:20:29;;;;;;;4.57;2.40;;;;;;;;;;5064688;28;20499;-80
2022/08/01 08:22:58;;;;;;;4.07;2.65;;;;;;;;;;5088333;28;20025;-80
2022/08/01 08:25:39;;;;;;;5.03;2.50;;;;;;;;;;5091282;28;20032;-84
2022/08/01 08:28:05;;;;;;;2.72;2.35;;;;;;;;;;5082558;28;20028;-81
2022/08/01 08:30:34;;;;;;;5.00;2.55;;;;;;;;;;5082005;28;20020;-85
2022/08/01 08:33:00;;;;;;;3.67;2.72;;;;;;;;;;5071024;28;20114;-84
2022/08/01 08:35:26;;;;;;;5.88;2.90;;;;;;;;;;5071527;28;20028;-82
2022/08/01 08:37:52;;;;;;;5.05;2.53;;;;;;;;;;5083510;28;20044;-80
2022/08/01 08:40:19;;;;;;;4.18;2.60;;;;;;;;;;5086950;28;20048;-85
2022/08/01 08:42:46;;;;;;;4.55;2.53;;;;;;;;;;5069879;28;20177;-81
2022/08/01 08:45:12;;;;;;;3.75;2.30;;;;;;;;;;5089361;28;20488;-82
2022/08/01 08:47:38;;;;;;;3.03;2.10;;;;;;;;;;5082916;28;20036;-84
2022/08/01 08:50:06;;;;;;;7.75;5.05;;;;;;;;;;5082038;28;20146;-83
2022/08/01 08:52:35;;;;;;;2.55;1.90;;;;;;;;;;5060391;28;20382;-77
2022/08/01 08:55:02;;;;;;;4.22;2.28;;;;;;;;;;5084638;28;20066;-80
2022/08/01 08:57:28;;;;;;;2.40;1.95;;;;;;;;;;5091427;28;20047;-80
2022/08/01 08:59:55;;;;;;;5.45;4.78;;;;;;;;;;5090848;28;20027;-80
2022/08/01 09:02:22;;;;;;;3.13;2.83;;;;;;;;;;5090927;28;20028;-81
2022/08/01 09:04:49;;;;;;;6.30;1.85;;;;;;;;;;5075543;28;20032;-80
2022/08/01 09:07:15;;;;;;;2.88;1.60;;;;;;;;;;5082821;28;20024;-69
2022/08/01 09:09:41;;;;;;;6.20;1.65;;;;;;;;;;5094236;28;20024;-81
2022/08/01 09:12:07;;;;;;;2.38;1.77;;;;;;;;;;5093341;28;20028;-81
2022/08/01 09:14:35;;;;;;;2.95;1.40;;;;;;;;;;5087036;28;20555;-82
2022/08/01 09:17:06;;;;;;;2.40;1.55;;;;;;;;;;5092761;28;20039;-81
2022/08/01 09:19:51;;;;;;;2.75;1.60;;;;;;;;;;5087097;28;20036;-80
2022/08/01 09:22:20;;;;;;;3.08;2.35;;;;;;;;;;5091012;28;20037;-87
2022/08/01 09:25:05;;;;;;;2.65;1.23;;;;;;;;;;5093051;28;20024;-81
2022/08/01 09:27:32;;;;;;;4.05;1.83;;;;;;;;;;5085384;28;20012;-82
2022/08/01 09:30:16;;;;;;;2.17;1.60;;;;;;;;;;5074244;28;20037;-82
2022/08/01 09:33:01;;;;;;;2.58;1.40;;;;;;;;;;5062732;28;20027;-84
2022/08/01 09:35:35;;;;;;;1.70;1.50;;;;;;;;;;5083892;28;20032;-87
2022/08/01 09:38:16;;;;;;;3.70;2.30;;;;;;;;;;5067965;28;20035;-80
2022/08/01 09:41:04;;;;;;;3.58;2.72;;;;;;;;;;5085212;28;20114;-81
2022/08/01 09:43:30;;;;;;;1.77;1.65;;;;;;;;;;5093738;28;20031;-83
2022/08/01 09:45:59;;;;;;;2.08;1.90;;;;;;;;;;5093343;28;20028;-80
2022/08/01 09:48:27;;;;;;;3.30;1.67;;;;;;;;;;5088120;28;20029;-83
2022/08/01 09:50:54;;;;;;;2.65;1.63;;;;;;;;;;5056365;28;20103;-80
2022/08/01 09:53:20;;;;;;;2.88;1.65;;;;;;;;;;5063831;28;20024;-81
2022/08/01 09:55:46;;;;;;;3.40;1.92;;;;;;;;;;5068091;28;20035;-80
2022/08/01 09:58:12;;;;;;;2.30;1.58;;;;;;;;;;5079857;28;20029;-80
2022/08/01 10:00:40;;;;;;;2.35;1.55;;;;;;;;;;5086795;28;20024;-81
2022/08/01 10:03:20;;;;;;;1.80;1.67;;;;;;;;;;5080925;28;20024;-78
2022/08/01 10:05:47;;;;;;;2.80;1.88;;;;;;;;;;5064327;28;20035;-87
2022/08/01 10:08:13;;;;;;;4.07;1.88;;;;;;;;;;5065428;28;20082;-80
2022/08/01 10:10:39;;;;;;;4.35;2.15;;;;;;;;;;5085339;28;20048;-80
2022/08/01 10:13:06;;;;;;;4.88;1.52;;;;;;;;;;5077454;28;20467;-82
2022/08/01 10:15:32;;;;;;;2.13;1.58;;;;;;;;;;5067439;28;20467;-79
2022/08/01 10:18:01;;;;;;;2.95;1.60;;;;;;;;;;5091765;28;20032;-79
2022/08/01 10:20:28;;;;;;;4.00;2.75;;;;;;;;;;5087208;28;20161;-81
2022/08/01 10:22:55;;;;;;;2.17;1.63;;;;;;;;;;5104524;28;20011;-86
2022/08/01 10:25:22;;;;;;;3.10;1.45;;;;;;;;;;5085538;28;20059;-82
2022/08/01 10:27:56;;;;;;;4.13;2.78;;;;;;;;;;5087839;28;20032;-80
2022/08/01 10:30:23;;;;;;;3.30;1.98;;;;;;;;;;5087748;28;20209;-80
2022/08/01 10:32:51;;;;;;;3.42;1.90;;;;;;;;;;5088443;28;20060;-82
2022/08/01 10:35:18;;;;;;;1.75;1.48;;;;;;;;;;5091918;28;20036;-83
2022/08/01 10:37:45;;;;;;;3.15;1.92;;;;;;;;;;5090068;28;20036;-80
2022/08/01 10:40:15;;;;;;;1.98;1.77;;;;;;;;;;5088350;28;20050;-80
2022/08/01 10:42:50;;;;;;;4.45;2.33;;;;;;;;;;5061799;28;20021;-82
2022/08/01 10:45:22;;;;;;;4.53;2.22;;;;;;;;;;5072682;28;20490;-83
2022/08/01 10:48:07;;;;;;;3.72;2.38;;;;;;;;;;5071105;28;20055;-82
2022/08/01 10:50:35;;;;;;;2.70;1.92;;;;;;;;;;5089664;28;20020;-83
2022/08/01 10:53:20;;;;;;;3.88;2.03;;;;;;;;;;5089770;28;20093;-82
2022/08/01 10:55:52;;;;;;;4.78;2.40;;;;;;;;;;5091316;28;20066;-78
2022/08/01 10:58:26;;;;;;;4.00;3.05;;;;;;;;;;5079995;28;20072;-84
2022/08/01 11:01:11;;;;;;;3.15;1.95;;;;;;;;;;5082193;28;20039;-82
2022/08/01 11:03:40;;;;;;;2.58;1.63;;;;;;;;;;5077947;28;20055;-81
2022/08/01 11:06:06;;;;;;;4.28;2.80;;;;;;;;;;5082213;28;20087;-78
2022/08/01 11:08:36;;;;;;;4.57;2.55;;;;;;;;;;5079432;28;20095;-81
2022/08/01 11:11:11;;;;;;;5.63;3.40;;;;;;;;;;5090570;28;20073;-78
2022/08/01 11:14:06;;;;;;;2.42;2.10;;;;;;;;;;5081838;28;20078;-79
2022/08/01 11:16:33;;;;;;;6.15;2.90;;;;;;;;;;5061343;28;20090;-81
2022/08/01 11:18:59;;;;;;;5.07;3.40;;;;;;;;;;5079446;28;20051;-83
2022/08/01 11:21:44;;;;;;;5.78;3.22;;;;;;;;;;5081983;28;20540;-82
2022/08/01 11:24:10;;;;;;;2.55;2.20;;;;;;;;;;5078755;28;20103;-85
2022/08/01 11:26:36;;;;;;;2.97;1.52;;;;;;;;;;5059956;28;20085;-70
2022/08/01 11:29:14;;;;;;;1.48;1.38;;;;;;;;;;5078333;28;20103;-84
2022/08/01 11:31:40;;;;;;;5.07;3.42;;;;;;;;;;5089882;28;20020;-82
2022/08/01 11:34:09;;;;;;;4.30;1.95;;;;;;;;;;5088143;28;20070;-81
2022/08/01 11:36:35;;;;;;;3.38;2.08;;;;;;;;;;5092362;28;20056;-81
2022/08/01 11:39:02;;;;;;;3.22;2.10;;;;;;;;;;5081843;28;20027;-82
2022/08/01 11:41:31;;;;;;;2.50;1.52;;;;;;;;;;5092532;28;20079;-82
2022/08/01 11:43:59;;;;;;;2.30;1.60;;;;;;;;;;5076586;28;20119;-82
2022/08/01 11:46:44;;;;;;;3.08;1.25;;;;;;;;;;5054278;28;20438;-79
2022/08/01 11:49:29;;;;;;;1.58;1.30;;;;;;;;;;5072557;28;20035;-78
2022/08/01 11:52:15;;;;;;;2.58;1.45;;;;;;;;;;5054224;28;20410;-80
2022/08/01 11:54:59;;;;;;;3.58;1.73;;;;;;;;;;5072430;28;20429;-77
2022/08/01 11:57:30;;;;;;;6.97;1.90;;;;;;;;;;5071871;28;20024;-80
2022/08/01 11:59:57;;;;;;;2.95;1.30;;;;;;;;;;5071256;28;20112;-80
2022/08/01 12:02:28;;;;;;;2.33;1.40;;;;;;;;;;5071974;28;20067;-79
2022/08/01 12:04:59;;;;;;;3.85;2.95;;;;;;;;;;5077414;28;20076;-80
2022/08/01 12:07:27;;;;;;;2.30;2.10;;;;;;;;;;5073238;28;20028;-79
2022/08/01 12:10:11;;;;;;;1.92;1.23;;;;;;;;;;5072228;28;20112;-80
2022/08/01 12:12:43;;;;;;;2.35;1.67;;;;;;;;;;5053969;28;20798;-81
2022/08/01 12:15:10;;;;;;;1.98;1.38;;;;;;;;;;5071927;28;20460;-80
2022/08/01 12:17:37;;;;;;;3.53;1.20;;;;;;;;;;5071780;28;20110;-80
2022/08/01 12:20:04;;;;;;;2.45;1.20;;;;;;;;;;5072145;28;20097;-79
2022/08/01 12:22:31;;;;;;;2.47;1.70;;;;;;;;;;5080937;28;20024;-79
2022/08/01 12:25:05;;;;;;;1.80;1.30;;;;;;;;;;5092036;28;20051;-80
2022/08/01 12:27:31;;;;;;;3.47;1.30;;;;;;;;;;5086648;28;20028;-83
2022/08/01 12:29:58;;;;;;;1.80;1.40;;;;;;;;;;5075873;28;20107;-83
2022/08/01 12:32:31;;;;;;;2.72;1.92;;;;;;;;;;5089650;28;20109;-84
2022/08/01 12:35:01;;;;;;;1.15;1.00;;;;;;;;;;5083737;28;20036;-81
2022/08/01 12:37:27;;;;;;;1.80;1.27;;;;;;;;;;5083520;28;20483;-82
2022/08/01 12:39:53;;;;;;;6.38;1.67;;;;;;;;;;5054122;28;20090;-84
2022/08/01 12:42:20;;;;;;;2.05;1.40;;;;;;;;;;5087498;28;20348;-82
2022/08/01 12:44:48;;;;;;;1.85;1.20;;;;;;;;;;5090956;28;20039;-75
2022/08/01 12:47:15;;;;;;;1.30;1.20;;;;;;;;;;5088753;28;20024;-78
2022/08/01 12:49:43;;;;;;;2.63;1.33;;;;;;;;;;5082728;28;20017;-85
2022/08/01 12:52:09;;;;;;;1.52;1.33;;;;;;;;;;5088280;28;20023;-83
2022/08/01 12:54:54;;;;;;;6.72;4.40;;;;;;;;;;5091425;28;20095;-81
2022/08/01 12:57:24;;;;;;;2.08;1.20;;;;;;;;;;5091530;28;20016;-81
2022/08/01 12:59:53;;;;;;;2.72;1.50;;;;;;;;;;5091133;28;20020;-84
2022/08/01 13:02:19;;;;;;;1.73;1.15;;;;;;;;;;5091479;28;20550;-80
2022/08/01 13:04:52;;;;;;;3.90;3.40;;;;;;;;;;5086350;28;20029;-82
2022/08/01 13:07:19;;;;;;;3.67;1.90;;;;;;;;;;5099885;28;20089;-81
2022/08/01 13:09:51;;;;;;;2.05;1.60;;;;;;;;;;5111571;28;20047;-81
2022/08/01 13:12:17;;;;;;;1.88;1.30;;;;;;;;;;5094427;28;20020;-88
2022/08/01 13:14:43;;;;;;;1.33;1.00;;;;;;;;;;5095567;28;20024;-79
2022/08/01 13:17:09;;;;;;;3.17;1.42;;;;;;;;;;5095362;28;20103;-82
2022/08/01 13:19:43;;;;;;;1.92;1.77;;;;;;;;;;5094290;28;20047;-80
2022/08/01 13:22:09;;;;;;;6.25;5.68;;;;;;;;;;5095088;28;20035;-82
2022/08/01 13:24:35;;;;;;;2.60;2.00;;;;;;;;;;5094819;28;20020;-81
2022/08/01 13:27:05;;;;;;;2.20;1.10;;;;;;;;;;5095392;28;20059;-73
2022/08/01 13:29:38;;;;;;;1.52;1.42;;;;;;;;;;5081973;28;20051;-82
2022/08/01 13:32:14;;;;;;;1.38;1.10;;;;;;;;;;5084486;28;20029;-83
2022/08/01 13:34:40;;;;;;;3.40;3.08;;;;;;;;;;5056830;28;20443;-81
2022/08/01 13:37:06;;;;;;;4.38;3.03;;;;;;;;;;5074980;28;20094;-83
2022/08/01 13:42:17;;;;;;;2.80;1.58;;;;;;;;;;5074838;28;20039;-86
2022/08/01 13:47:28;;;;;;;1.88;1.30;;;;;;;;;;5078444;28;20394;-84
2022/08/01 13:49:54;;;;;;;1.85;1.00;;;;;;;;;;5074216;28;20403;-85
2022/08/01 13:52:23;;;;;;;1.88;1.10;;;;;;;;;;5076822;28;20090;-88
2022/08/01 13:54:49;;;;;;;2.08;1.30;;;;;;;;;;5094544;28;20036;-85
2022/08/01 13:57:18;;;;;;;1.98;1.80;;;;;;;;;;5094904;28;20024;-86
2022/08/01 13:59:53;;;;;;;2.10;2.00;;;;;;;;;;5094551;28;20028;-85
2022/08/01 14:02:21;;;;;;;2.30;2.10;;;;;;;;;;5076591;28;20058;-87
2022/08/01 14:04:54;;;;;;;2.05;1.67;;;;;;;;;;5077638;28;20036;-83
2022/08/01 14:07:20;;;;;;;2.88;1.80;;;;;;;;;;5074037;28;20020;-84
2022/08/01 14:09:46;;;;;;;2.53;1.50;;;;;;;;;;5074351;28;20020;-83
2022/08/01 14:12:25;;;;;;;3.10;1.20;;;;;;;;;;5076555;28;20016;-88
2022/08/01 14:14:51;;;;;;;2.30;1.52;;;;;;;;;;5093722;28;20501;-86
2022/08/01 14:17:17;;;;;;;1.65;1.27;;;;;;;;;;5090280;28;20476;-88
2022/08/01 14:19:43;;;;;;;1.88;1.50;;;;;;;;;;5094961;28;20052;-84
2022/08/01 14:22:19;;;;;;;2.15;1.60;;;;;;;;;;5093698;28;20020;-84
2022/08/01 14:24:48;;;;;;;2.10;1.90;;;;;;;;;;5075920;28;20028;-86
2022/08/01 14:27:18;;;;;;;3.85;3.13;;;;;;;;;;5076064;28;20410;-85
2022/08/01 14:29:46;;;;;;;3.25;2.10;;;;;;;;;;5075955;28;20482;-83
2022/08/01 14:32:12;;;;;;;4.85;3.30;;;;;;;;;;5057746;28;20032;-84
2022/08/01 14:34:38;;;;;;;4.10;3.40;;;;;;;;;;5075968;28;20029;-86
2022/08/01 14:37:04;;;;;;;2.10;1.90;;;;;;;;;;5089061;28;20074;-85
2022/08/01 14:39:33;;;;;;;3.72;2.92;;;;;;;;;;5094162;28;20475;-84
2022/08/01 14:41:59;;;;;;;3.22;2.05;;;;;;;;;;5082969;28;20487;-87
2022/08/01 14:44:25;;;;;;;2.25;2.05;;;;;;;;;;5087251;28;20048;-84
2022/08/01 14:46:51;;;;;;;2.42;2.00;;;;;;;;;;5073235;28;20100;-84
2022/08/01 14:49:18;;;;;;;2.33;1.90;;;;;;;;;;5073539;28;20432;-85
2022/08/01 14:51:44;;;;;;;2.53;1.83;;;;;;;;;;5075991;28;20012;-83
2022/08/01 14:54:10;;;;;;;3.40;2.38;;;;;;;;;;5093627;28;20035;-86
2022/08/01 14:56:36;;;;;;;3.00;2.30;;;;;;;;;;5093800;28;20065;-87